sensor_id;sensor_type;location;lat;lon;timestamp;temperature;humidity
37412;DHT22;23278;52.110;6.050;2023-02-18T00:00:19;10.10;99.90
37412;DHT22;23278;52.110;6.050;2023-02-18T00:02:46;10.20;99.90
37412;DHT22;23278;52.110;6.050;2023-02-18T00:05:13;10.30;99.90
37412;DHT22;23278;52.110;6.050;2023-02-18T00:07:40;10.30;99.90
37412;DHT22;23278;52.110;6.050;2023-02-18T00:10:11;10.40;99.90
37412;DHT22;23278;52.110;6.050;2023-02-18T00:12:40;10.40;99.90
37412;DHT22;23278;52.110;6.050;2023-02-18T00:15:06;10.50;99.90
37412;DHT22;23278;52.110;6.050;2023-02-18T00:17:32;10.50;99.90
37412;DHT22;23278;52.110;6.050;2023-02-18T00:19:58;10.50;99.90
37412;DHT22;23278;52.110;6.050;2023-02-18T00:22:24;10.60;99.90
37412;DHT22;23278;52.110;6.050;2023-02-18T00:24:50;10.60;99.90
37412;DHT22;23278;52.110;6.050;2023-02-18T00:27:16;10.70;99.90
37412;DHT22;23278;52.110;6.050;2023-02-18T00:29:45;10.70;99.90
37412;DHT22;23278;52.110;6.050;2023-02-18T00:32:14;10.70;99.90
37412;DHT22;23278;52.110;6.050;2023-02-18T00:34:40;10.80;99.90
37412;DHT22;23278;52.110;6.050;2023-02-18T00:37:06;10.80;99.90
37412;DHT22;23278;52.110;6.050;2023-02-18T00:39:32;10.80;99.90
37412;DHT22;23278;52.110;6.050;2023-02-18T00:41:58;10.80;99.90
37412;DHT22;23278;52.110;6.050;2023-02-18T00:44:25;10.80;99.90
37412;DHT22;23278;52.110;6.050;2023-02-18T00:46:50;10.80;99.90
37412;DHT22;23278;52.110;6.050;2023-02-18T00:49:17;10.80;99.90
37412;DHT22;23278;52.110;6.050;2023-02-18T00:51:43;10.90;99.90
37412;DHT22;23278;52.110;6.050;2023-02-18T00:54:09;10.90;99.90
37412;DHT22;23278;52.110;6.050;2023-02-18T00:56:35;10.80;99.90
37412;DHT22;23278;52.110;6.050;2023-02-18T00:59:01;10.80;99.90
37412;DHT22;23278;52.110;6.050;2023-02-18T01:01:27;10.80;99.90
37412;DHT22;23278;52.110;6.050;2023-02-18T01:03:53;10.80;99.90
37412;DHT22;23278;52.110;6.050;2023-02-18T01:06:19;10.90;99.90
37412;DHT22;23278;52.110;6.050;2023-02-18T01:08:47;10.90;99.90
37412;DHT22;23278;52.110;6.050;2023-02-18T01:11:13;10.90;99.90
37412;DHT22;23278;52.110;6.050;2023-02-18T01:13:40;10.80;99.90
37412;DHT22;23278;52.110;6.050;2023-02-18T01:16:07;10.80;99.90
37412;DHT22;23278;52.110;6.050;2023-02-18T01:18:33;10.80;99.90
37412;DHT22;23278;52.110;6.050;2023-02-18T01:20:59;10.80;99.90
37412;DHT22;23278;52.110;6.050;2023-02-18T01:23:25;10.70;99.90
37412;DHT22;23278;52.110;6.050;2023-02-18T01:25:51;10.80;99.90
37412;DHT22;23278;52.110;6.050;2023-02-18T01:28:18;10.70;99.90
37412;DHT22;23278;52.110;6.050;2023-02-18T01:30:45;10.70;99.90
37412;DHT22;23278;52.110;6.050;2023-02-18T01:33:11;10.70;99.90
37412;DHT22;23278;52.110;6.050;2023-02-18T01:35:39;10.60;99.90
37412;DHT22;23278;52.110;6.050;2023-02-18T01:38:05;10.60;99.90
37412;DHT22;23278;52.110;6.050;2023-02-18T01:40:31;10.60;99.90
37412;DHT22;23278;52.110;6.050;2023-02-18T01:42:58;10.60;99.90
37412;DHT22;23278;52.110;6.050;2023-02-18T01:48:09;10.60;99.90
37412;DHT22;23278;52.110;6.050;2023-02-18T01:50:39;10.60;99.90
37412;DHT22;23278;52.110;6.050;2023-02-18T01:53:06;10.50;99.90
37412;DHT22;23278;52.110;6.050;2023-02-18T01:55:33;10.50;99.90
37412;DHT22;23278;52.110;6.050;2023-02-18T01:58:00;10.50;99.90
37412;DHT22;23278;52.110;6.050;2023-02-18T02:00:28;10.50;99.90
37412;DHT22;23278;52.110;6.050;2023-02-18T02:02:55;10.50;99.90
37412;DHT22;23278;52.110;6.050;2023-02-18T02:05:51;10.50;99.90
37412;DHT22;23278;52.110;6.050;2023-02-18T02:16:13;10.30;99.90
37412;DHT22;23278;52.110;6.050;2023-02-18T02:22:04;10.20;99.90
37412;DHT22;23278;52.110;6.050;2023-02-18T02:24:57;10.20;99.90
37412;DHT22;23278;52.110;6.050;2023-02-18T02:33:28;10.10;99.90
37412;DHT22;23278;52.110;6.050;2023-02-18T02:36:22;10.10;99.90
37412;DHT22;23278;52.110;6.050;2023-02-18T02:38:59;10.20;99.90
37412;DHT22;23278;52.110;6.050;2023-02-18T02:44:20;10.20;99.90
37412;DHT22;23278;52.110;6.050;2023-02-18T02:46:51;10.20;99.90
37412;DHT22;23278;52.110;6.050;2023-02-18T02:52:25;10.30;99.90
37412;DHT22;23278;52.110;6.050;2023-02-18T02:54:53;10.30;99.90
37412;DHT22;23278;52.110;6.050;2023-02-18T02:59:58;10.30;99.90
37412;DHT22;23278;52.110;6.050;2023-02-18T03:05:19;10.30;99.90
37412;DHT22;23278;52.110;6.050;2023-02-18T03:11:03;10.40;99.90
37412;DHT22;23278;52.110;6.050;2023-02-18T03:18:45;10.40;99.90
37412;DHT22;23278;52.110;6.050;2023-02-18T03:21:26;10.40;99.90
37412;DHT22;23278;52.110;6.050;2023-02-18T03:24:01;10.50;99.90
37412;DHT22;23278;52.110;6.050;2023-02-18T03:26:29;10.50;99.90
37412;DHT22;23278;52.110;6.050;2023-02-18T03:29:00;10.50;99.90
37412;DHT22;23278;52.110;6.050;2023-02-18T03:31:29;10.50;99.90
37412;DHT22;23278;52.110;6.050;2023-02-18T03:34:04;10.50;99.90
37412;DHT22;23278;52.110;6.050;2023-02-18T03:36:33;10.50;99.90
37412;DHT22;23278;52.110;6.050;2023-02-18T03:39:13;10.60;99.90
37412;DHT22;23278;52.110;6.050;2023-02-18T03:41:40;10.60;99.90
37412;DHT22;23278;52.110;6.050;2023-02-18T03:44:08;10.60;99.90
37412;DHT22;23278;52.110;6.050;2023-02-18T03:46:37;10.60;99.90
37412;DHT22;23278;52.110;6.050;2023-02-18T03:49:03;10.60;99.90
37412;DHT22;23278;52.110;6.050;2023-02-18T03:51:29;10.60;99.90
37412;DHT22;23278;52.110;6.050;2023-02-18T03:53:55;10.60;99.90
37412;DHT22;23278;52.110;6.050;2023-02-18T03:56:22;10.70;99.90
37412;DHT22;23278;52.110;6.050;2023-02-18T03:58:48;10.60;99.90
37412;DHT22;23278;52.110;6.050;2023-02-18T04:01:14;10.70;99.90
37412;DHT22;23278;52.110;6.050;2023-02-18T04:03:40;10.70;99.90
37412;DHT22;23278;52.110;6.050;2023-02-18T04:06:06;10.70;99.90
37412;DHT22;23278;52.110;6.050;2023-02-18T04:08:32;10.70;99.90
37412;DHT22;23278;52.110;6.050;2023-02-18T04:10:58;10.70;99.90
37412;DHT22;23278;52.110;6.050;2023-02-18T04:13:23;10.70;99.90
37412;DHT22;23278;52.110;6.050;2023-02-18T04:15:50;10.70;99.90
37412;DHT22;23278;52.110;6.050;2023-02-18T04:18:17;10.70;99.90
37412;DHT22;23278;52.110;6.050;2023-02-18T04:20:43;10.70;99.90
37412;DHT22;23278;52.110;6.050;2023-02-18T04:23:08;10.70;99.90
37412;DHT22;23278;52.110;6.050;2023-02-18T04:25:34;10.70;99.90
37412;DHT22;23278;52.110;6.050;2023-02-18T04:28:02;10.80;99.90
37412;DHT22;23278;52.110;6.050;2023-02-18T04:30:28;10.80;99.90
37412;DHT22;23278;52.110;6.050;2023-02-18T04:32:54;10.80;99.90
37412;DHT22;23278;52.110;6.050;2023-02-18T04:35:20;10.80;99.90
37412;DHT22;23278;52.110;6.050;2023-02-18T04:37:46;10.80;99.90
37412;DHT22;23278;52.110;6.050;2023-02-18T04:40:12;10.80;99.90
37412;DHT22;23278;52.110;6.050;2023-02-18T04:42:38;10.80;99.90
37412;DHT22;23278;52.110;6.050;2023-02-18T04:45:05;10.80;99.90
37412;DHT22;23278;52.110;6.050;2023-02-18T04:47:30;10.80;99.90
37412;DHT22;23278;52.110;6.050;2023-02-18T04:49:56;10.80;99.90
37412;DHT22;23278;52.110;6.050;2023-02-18T04:52:22;10.80;99.90
37412;DHT22;23278;52.110;6.050;2023-02-18T04:54:48;10.80;99.90
37412;DHT22;23278;52.110;6.050;2023-02-18T04:57:14;10.80;99.90
37412;DHT22;23278;52.110;6.050;2023-02-18T04:59:40;10.80;99.90
37412;DHT22;23278;52.110;6.050;2023-02-18T05:02:06;10.80;99.90
37412;DHT22;23278;52.110;6.050;2023-02-18T05:04:32;10.80;99.90
37412;DHT22;23278;52.110;6.050;2023-02-18T05:06:58;10.80;99.90
37412;DHT22;23278;52.110;6.050;2023-02-18T05:09:25;10.80;99.90
37412;DHT22;23278;52.110;6.050;2023-02-18T05:11:51;10.80;99.90
37412;DHT22;23278;52.110;6.050;2023-02-18T05:14:17;10.80;99.90
37412;DHT22;23278;52.110;6.050;2023-02-18T05:16:43;10.80;99.90
37412;DHT22;23278;52.110;6.050;2023-02-18T05:19:13;10.80;99.90
37412;DHT22;23278;52.110;6.050;2023-02-18T05:21:39;10.80;99.90
37412;DHT22;23278;52.110;6.050;2023-02-18T05:24:05;10.80;99.90
37412;DHT22;23278;52.110;6.050;2023-02-18T05:26:33;10.80;99.90
37412;DHT22;23278;52.110;6.050;2023-02-18T05:28:59;10.80;99.90
37412;DHT22;23278;52.110;6.050;2023-02-18T05:31:25;10.80;99.90
37412;DHT22;23278;52.110;6.050;2023-02-18T05:33:51;10.80;99.90
37412;DHT22;23278;52.110;6.050;2023-02-18T05:36:17;10.80;99.90
37412;DHT22;23278;52.110;6.050;2023-02-18T05:38:43;10.70;99.90
37412;DHT22;23278;52.110;6.050;2023-02-18T05:41:08;10.80;99.90
37412;DHT22;23278;52.110;6.050;2023-02-18T05:43:34;10.80;99.90
37412;DHT22;23278;52.110;6.050;2023-02-18T05:46:20;10.80;99.90
37412;DHT22;23278;52.110;6.050;2023-02-18T05:48:46;10.70;99.90
37412;DHT22;23278;52.110;6.050;2023-02-18T05:51:12;10.70;99.90
37412;DHT22;23278;52.110;6.050;2023-02-18T05:53:38;10.70;99.90
37412;DHT22;23278;52.110;6.050;2023-02-18T05:56:05;10.70;99.90
37412;DHT22;23278;52.110;6.050;2023-02-18T05:58:31;10.70;99.90
37412;DHT22;23278;52.110;6.050;2023-02-18T06:00:57;10.70;99.90
37412;DHT22;23278;52.110;6.050;2023-02-18T06:03:22;10.70;99.90
37412;DHT22;23278;52.110;6.050;2023-02-18T06:05:51;10.60;99.90
37412;DHT22;23278;52.110;6.050;2023-02-18T06:08:18;10.60;99.90
37412;DHT22;23278;52.110;6.050;2023-02-18T06:10:45;10.60;99.90
37412;DHT22;23278;52.110;6.050;2023-02-18T06:13:11;10.60;99.90
37412;DHT22;23278;52.110;6.050;2023-02-18T06:15:37;10.60;99.90
37412;DHT22;23278;52.110;6.050;2023-02-18T06:18:04;10.60;99.90
37412;DHT22;23278;52.110;6.050;2023-02-18T06:20:30;10.60;99.90
37412;DHT22;23278;52.110;6.050;2023-02-18T06:22:56;10.50;99.90
37412;DHT22;23278;52.110;6.050;2023-02-18T06:25:22;10.50;99.90
37412;DHT22;23278;52.110;6.050;2023-02-18T06:27:47;10.50;99.90
37412;DHT22;23278;52.110;6.050;2023-02-18T06:30:13;10.50;99.90
37412;DHT22;23278;52.110;6.050;2023-02-18T06:32:39;10.40;99.90
37412;DHT22;23278;52.110;6.050;2023-02-18T06:35:05;10.40;99.90
37412;DHT22;23278;52.110;6.050;2023-02-18T06:37:31;10.50;99.90
37412;DHT22;23278;52.110;6.050;2023-02-18T06:39:57;10.40;99.90
37412;DHT22;23278;52.110;6.050;2023-02-18T06:42:23;10.40;99.90
37412;DHT22;23278;52.110;6.050;2023-02-18T06:44:49;10.40;99.90
37412;DHT22;23278;52.110;6.050;2023-02-18T06:47:15;10.40;99.90
37412;DHT22;23278;52.110;6.050;2023-02-18T06:49:41;10.40;99.90
37412;DHT22;23278;52.110;6.050;2023-02-18T06:52:07;10.40;99.90
37412;DHT22;23278;52.110;6.050;2023-02-18T06:54:33;10.40;99.90
37412;DHT22;23278;52.110;6.050;2023-02-18T06:56:59;10.40;99.90
37412;DHT22;23278;52.110;6.050;2023-02-18T06:59:25;10.40;99.90
37412;DHT22;23278;52.110;6.050;2023-02-18T07:01:51;10.40;99.90
37412;DHT22;23278;52.110;6.050;2023-02-18T07:04:17;10.40;99.90
37412;DHT22;23278;52.110;6.050;2023-02-18T07:06:43;10.40;99.90
37412;DHT22;23278;52.110;6.050;2023-02-18T07:09:08;10.30;99.90
37412;DHT22;23278;52.110;6.050;2023-02-18T07:11:34;10.30;99.90
37412;DHT22;23278;52.110;6.050;2023-02-18T07:14:00;10.40;99.90
37412;DHT22;23278;52.110;6.050;2023-02-18T07:16:26;10.30;99.90
37412;DHT22;23278;52.110;6.050;2023-02-18T07:18:52;10.30;99.90
37412;DHT22;23278;52.110;6.050;2023-02-18T07:21:18;10.30;99.90
37412;DHT22;23278;52.110;6.050;2023-02-18T07:23:44;10.40;99.90
37412;DHT22;23278;52.110;6.050;2023-02-18T07:26:12;10.40;99.90
37412;DHT22;23278;52.110;6.050;2023-02-18T07:28:38;10.40;99.90
37412;DHT22;23278;52.110;6.050;2023-02-18T07:31:05;10.30;99.90
37412;DHT22;23278;52.110;6.050;2023-02-18T07:33:31;10.30;99.90
37412;DHT22;23278;52.110;6.050;2023-02-18T07:35:58;10.30;99.90
37412;DHT22;23278;52.110;6.050;2023-02-18T07:38:26;10.30;99.90
37412;DHT22;23278;52.110;6.050;2023-02-18T07:40:52;10.30;99.90
37412;DHT22;23278;52.110;6.050;2023-02-18T07:43:19;10.30;99.90
37412;DHT22;23278;52.110;6.050;2023-02-18T07:45:44;10.30;99.90
37412;DHT22;23278;52.110;6.050;2023-02-18T07:48:11;10.30;99.90
37412;DHT22;23278;52.110;6.050;2023-02-18T07:50:41;10.30;99.90
37412;DHT22;23278;52.110;6.050;2023-02-18T07:53:09;10.30;99.90
37412;DHT22;23278;52.110;6.050;2023-02-18T07:55:35;10.30;99.90
37412;DHT22;23278;52.110;6.050;2023-02-18T07:58:34;10.20;99.90
37412;DHT22;23278;52.110;6.050;2023-02-18T08:01:11;10.20;99.90
37412;DHT22;23278;52.110;6.050;2023-02-18T08:03:40;10.20;99.90
37412;DHT22;23278;52.110;6.050;2023-02-18T08:06:06;10.20;99.90
37412;DHT22;23278;52.110;6.050;2023-02-18T08:08:33;10.20;99.90
37412;DHT22;23278;52.110;6.050;2023-02-18T08:11:01;10.20;99.90
37412;DHT22;23278;52.110;6.050;2023-02-18T08:13:29;10.10;99.90
37412;DHT22;23278;52.110;6.050;2023-02-18T08:15:56;10.10;99.90
37412;DHT22;23278;52.110;6.050;2023-02-18T08:18:23;10.10;99.90
37412;DHT22;23278;52.110;6.050;2023-02-18T08:20:49;10.10;99.90
37412;DHT22;23278;52.110;6.050;2023-02-18T08:23:18;10.10;99.90
37412;DHT22;23278;52.110;6.050;2023-02-18T08:25:46;10.10;99.90
37412;DHT22;23278;52.110;6.050;2023-02-18T08:28:13;10.10;99.90
37412;DHT22;23278;52.110;6.050;2023-02-18T08:30:46;10.10;99.90
37412;DHT22;23278;52.110;6.050;2023-02-18T08:33:12;10.10;99.90
37412;DHT22;23278;52.110;6.050;2023-02-18T08:35:39;10.10;99.90
37412;DHT22;23278;52.110;6.050;2023-02-18T08:38:05;10.10;99.90
37412;DHT22;23278;52.110;6.050;2023-02-18T08:40:31;10.00;99.90
37412;DHT22;23278;52.110;6.050;2023-02-18T08:42:57;10.00;99.90
37412;DHT22;23278;52.110;6.050;2023-02-18T08:45:23;10.10;99.90
37412;DHT22;23278;52.110;6.050;2023-02-18T08:47:49;10.10;99.90
37412;DHT22;23278;52.110;6.050;2023-02-18T08:50:15;10.10;99.90
37412;DHT22;23278;52.110;6.050;2023-02-18T08:52:41;10.00;99.90
37412;DHT22;23278;52.110;6.050;2023-02-18T08:55:07;10.00;99.90
37412;DHT22;23278;52.110;6.050;2023-02-18T08:57:33;10.00;99.90
37412;DHT22;23278;52.110;6.050;2023-02-18T08:59:59;10.00;99.90
37412;DHT22;23278;52.110;6.050;2023-02-18T09:02:25;10.00;99.90
37412;DHT22;23278;52.110;6.050;2023-02-18T09:04:51;10.00;99.90
37412;DHT22;23278;52.110;6.050;2023-02-18T09:07:17;10.00;99.90
37412;DHT22;23278;52.110;6.050;2023-02-18T09:09:43;9.90;99.90
37412;DHT22;23278;52.110;6.050;2023-02-18T09:12:09;9.90;99.90
37412;DHT22;23278;52.110;6.050;2023-02-18T09:14:35;9.90;99.90
37412;DHT22;23278;52.110;6.050;2023-02-18T09:17:01;10.00;99.90
37412;DHT22;23278;52.110;6.050;2023-02-18T09:19:27;10.00;99.90
37412;DHT22;23278;52.110;6.050;2023-02-18T09:21:53;9.90;99.90
37412;DHT22;23278;52.110;6.050;2023-02-18T09:24:19;9.90;99.90
37412;DHT22;23278;52.110;6.050;2023-02-18T09:26:45;9.90;99.90
37412;DHT22;23278;52.110;6.050;2023-02-18T09:29:11;9.80;99.90
37412;DHT22;23278;52.110;6.050;2023-02-18T09:31:37;9.80;99.90
37412;DHT22;23278;52.110;6.050;2023-02-18T09:34:04;9.70;99.90
37412;DHT22;23278;52.110;6.050;2023-02-18T09:36:31;9.70;99.90
37412;DHT22;23278;52.110;6.050;2023-02-18T09:38:57;9.70;99.90
37412;DHT22;23278;52.110;6.050;2023-02-18T09:41:35;9.70;99.90
37412;DHT22;23278;52.110;6.050;2023-02-18T09:44:09;9.60;99.90
37412;DHT22;23278;52.110;6.050;2023-02-18T09:46:42;9.60;99.90
37412;DHT22;23278;52.110;6.050;2023-02-18T09:49:17;9.60;99.90
37412;DHT22;23278;52.110;6.050;2023-02-18T09:51:44;9.60;99.90
37412;DHT22;23278;52.110;6.050;2023-02-18T09:54:15;9.60;99.90
37412;DHT22;23278;52.110;6.050;2023-02-18T09:56:42;9.70;99.90
37412;DHT22;23278;52.110;6.050;2023-02-18T09:59:16;9.80;99.90
37412;DHT22;23278;52.110;6.050;2023-02-18T10:01:45;9.80;99.90
37412;DHT22;23278;52.110;6.050;2023-02-18T10:04:17;9.70;99.90
37412;DHT22;23278;52.110;6.050;2023-02-18T10:06:48;9.70;99.90
37412;DHT22;23278;52.110;6.050;2023-02-18T10:09:22;9.80;99.90
37412;DHT22;23278;52.110;6.050;2023-02-18T10:12:17;9.80;99.90
37412;DHT22;23278;52.110;6.050;2023-02-18T10:14:53;9.80;99.90
37412;DHT22;23278;52.110;6.050;2023-02-18T10:17:20;9.80;99.90
37412;DHT22;23278;52.110;6.050;2023-02-18T10:19:49;9.80;99.90
37412;DHT22;23278;52.110;6.050;2023-02-18T10:22:16;9.80;99.90
37412;DHT22;23278;52.110;6.050;2023-02-18T10:24:57;9.80;99.90
37412;DHT22;23278;52.110;6.050;2023-02-18T10:27:35;9.80;99.90
37412;DHT22;23278;52.110;6.050;2023-02-18T10:30:24;9.90;99.90
37412;DHT22;23278;52.110;6.050;2023-02-18T10:33:45;9.90;99.90
37412;DHT22;23278;52.110;6.050;2023-02-18T10:47:29;10.10;99.90
37412;DHT22;23278;52.110;6.050;2023-02-18T10:50:00;10.00;99.90
37412;DHT22;23278;52.110;6.050;2023-02-18T10:52:38;10.00;99.90
37412;DHT22;23278;52.110;6.050;2023-02-18T10:55:11;10.10;99.90
37412;DHT22;23278;52.110;6.050;2023-02-18T10:57:46;10.10;99.90
37412;DHT22;23278;52.110;6.050;2023-02-18T11:00:19;10.00;99.90
37412;DHT22;23278;52.110;6.050;2023-02-18T11:03:22;10.00;99.90
37412;DHT22;23278;52.110;6.050;2023-02-18T11:05:55;10.00;99.90
37412;DHT22;23278;52.110;6.050;2023-02-18T11:08:26;10.00;99.90
37412;DHT22;23278;52.110;6.050;2023-02-18T11:10:54;10.00;99.90
37412;DHT22;23278;52.110;6.050;2023-02-18T11:13:26;10.10;99.90
37412;DHT22;23278;52.110;6.050;2023-02-18T11:15:56;10.10;99.90
37412;DHT22;23278;52.110;6.050;2023-02-18T11:18:27;10.20;99.90
37412;DHT22;23278;52.110;6.050;2023-02-18T11:21:02;10.30;99.90
37412;DHT22;23278;52.110;6.050;2023-02-18T11:23:29;10.50;99.90
37412;DHT22;23278;52.110;6.050;2023-02-18T11:26:02;10.70;99.90
37412;DHT22;23278;52.110;6.050;2023-02-18T11:28:49;10.90;99.90
37412;DHT22;23278;52.110;6.050;2023-02-18T11:31:25;11.70;99.90
37412;DHT22;23278;52.110;6.050;2023-02-18T11:33:56;11.80;99.90
37412;DHT22;23278;52.110;6.050;2023-02-18T11:36:31;11.80;99.90
37412;DHT22;23278;52.110;6.050;2023-02-18T11:39:00;11.80;99.90
37412;DHT22;23278;52.110;6.050;2023-02-18T11:41:36;11.70;99.90
37412;DHT22;23278;52.110;6.050;2023-02-18T11:44:06;11.50;99.90
37412;DHT22;23278;52.110;6.050;2023-02-18T11:46:32;11.30;99.90
37412;DHT22;23278;52.110;6.050;2023-02-18T11:49:21;11.20;99.90
37412;DHT22;23278;52.110;6.050;2023-02-18T11:51:48;11.10;99.90
37412;DHT22;23278;52.110;6.050;2023-02-18T11:54:26;11.10;99.90
37412;DHT22;23278;52.110;6.050;2023-02-18T11:57:03;11.10;99.90
37412;DHT22;23278;52.110;6.050;2023-02-18T11:59:34;11.20;99.90
37412;DHT22;23278;52.110;6.050;2023-02-18T12:04:47;11.20;99.90
37412;DHT22;23278;52.110;6.050;2023-02-18T12:10:03;11.10;99.90
37412;DHT22;23278;52.110;6.050;2023-02-18T12:12:44;11.00;99.90
37412;DHT22;23278;52.110;6.050;2023-02-18T12:15:23;10.90;99.90
37412;DHT22;23278;52.110;6.050;2023-02-18T12:18:01;10.90;99.90
37412;DHT22;23278;52.110;6.050;2023-02-18T12:23:50;10.80;99.90
37412;DHT22;23278;52.110;6.050;2023-02-18T12:26:28;10.70;99.90
37412;DHT22;23278;52.110;6.050;2023-02-18T12:40:09;10.70;99.90
37412;DHT22;23278;52.110;6.050;2023-02-18T12:51:03;10.90;99.90
37412;DHT22;23278;52.110;6.050;2023-02-18T12:53:53;10.90;99.90
37412;DHT22;23278;52.110;6.050;2023-02-18T13:04:31;11.40;99.90
37412;DHT22;23278;52.110;6.050;2023-02-18T13:07:38;11.40;99.90
37412;DHT22;23278;52.110;6.050;2023-02-18T13:10:20;11.60;99.90
37412;DHT22;23278;52.110;6.050;2023-02-18T13:12:57;11.50;99.90
37412;DHT22;23278;52.110;6.050;2023-02-18T13:15:37;11.50;99.90
37412;DHT22;23278;52.110;6.050;2023-02-18T13:18:08;11.40;99.90
37412;DHT22;23278;52.110;6.050;2023-02-18T13:20:45;11.40;99.90
37412;DHT22;23278;52.110;6.050;2023-02-18T13:23:20;11.30;99.90
37412;DHT22;23278;52.110;6.050;2023-02-18T13:25:49;11.30;99.90
37412;DHT22;23278;52.110;6.050;2023-02-18T13:28:18;11.20;99.90
37412;DHT22;23278;52.110;6.050;2023-02-18T13:31:25;11.20;99.90
37412;DHT22;23278;52.110;6.050;2023-02-18T13:34:07;11.20;99.90
37412;DHT22;23278;52.110;6.050;2023-02-18T13:39:09;11.10;99.90
37412;DHT22;23278;52.110;6.050;2023-02-18T13:41:43;11.20;99.90
37412;DHT22;23278;52.110;6.050;2023-02-18T13:46:56;11.30;99.90
37412;DHT22;23278;52.110;6.050;2023-02-18T13:49:33;11.40;99.90
37412;DHT22;23278;52.110;6.050;2023-02-18T13:52:01;11.40;99.90
37412;DHT22;23278;52.110;6.050;2023-02-18T13:54:54;11.40;99.90
37412;DHT22;23278;52.110;6.050;2023-02-18T13:57:24;11.50;99.90
37412;DHT22;23278;52.110;6.050;2023-02-18T13:59:56;11.50;99.90
37412;DHT22;23278;52.110;6.050;2023-02-18T14:04:57;11.50;99.90
37412;DHT22;23278;52.110;6.050;2023-02-18T14:07:51;11.50;99.90
37412;DHT22;23278;52.110;6.050;2023-02-18T14:10:32;11.40;99.90
37412;DHT22;23278;52.110;6.050;2023-02-18T14:26:06;11.30;99.90
37412;DHT22;23278;52.110;6.050;2023-02-18T14:33:39;11.30;99.90
37412;DHT22;23278;52.110;6.050;2023-02-18T14:41:52;11.30;99.90
37412;DHT22;23278;52.110;6.050;2023-02-18T14:47:13;11.40;99.90
37412;DHT22;23278;52.110;6.050;2023-02-18T14:49:44;11.40;99.90
37412;DHT22;23278;52.110;6.050;2023-02-18T14:52:40;11.50;99.90
37412;DHT22;23278;52.110;6.050;2023-02-18T14:55:18;11.50;99.90
37412;DHT22;23278;52.110;6.050;2023-02-18T14:58:25;11.60;99.90
37412;DHT22;23278;52.110;6.050;2023-02-18T15:00:52;11.70;99.90
37412;DHT22;23278;52.110;6.050;2023-02-18T15:03:19;11.70;99.90
37412;DHT22;23278;52.110;6.050;2023-02-18T15:05:48;11.80;99.90
37412;DHT22;23278;52.110;6.050;2023-02-18T15:08:19;11.70;99.90
37412;DHT22;23278;52.110;6.050;2023-02-18T15:11:05;11.60;99.90
37412;DHT22;23278;52.110;6.050;2023-02-18T15:13:39;11.60;99.90
37412;DHT22;23278;52.110;6.050;2023-02-18T15:16:13;11.50;99.90
37412;DHT22;23278;52.110;6.050;2023-02-18T15:18:48;11.60;99.90
37412;DHT22;23278;52.110;6.050;2023-02-18T15:21:24;11.60;99.90
37412;DHT22;23278;52.110;6.050;2023-02-18T15:23:52;11.60;99.90
37412;DHT22;23278;52.110;6.050;2023-02-18T15:26:19;11.70;99.90
37412;DHT22;23278;52.110;6.050;2023-02-18T15:29:01;11.70;99.90
37412;DHT22;23278;52.110;6.050;2023-02-18T15:31:35;11.70;99.90
37412;DHT22;23278;52.110;6.050;2023-02-18T15:34:02;11.60;99.90
37412;DHT22;23278;52.110;6.050;2023-02-18T15:36:31;11.60;99.90
37412;DHT22;23278;52.110;6.050;2023-02-18T15:38:56;11.60;99.90
37412;DHT22;23278;52.110;6.050;2023-02-18T15:41:22;11.60;99.90
37412;DHT22;23278;52.110;6.050;2023-02-18T15:44:07;11.60;99.90
37412;DHT22;23278;52.110;6.050;2023-02-18T15:46:33;11.60;99.90
37412;DHT22;23278;52.110;6.050;2023-02-18T15:49:00;11.60;99.90
37412;DHT22;23278;52.110;6.050;2023-02-18T15:51:28;11.60;99.90
37412;DHT22;23278;52.110;6.050;2023-02-18T15:54:00;11.60;99.90
37412;DHT22;23278;52.110;6.050;2023-02-18T15:56:33;11.60;99.90
37412;DHT22;23278;52.110;6.050;2023-02-18T15:59:18;11.60;99.90
37412;DHT22;23278;52.110;6.050;2023-02-18T16:04:36;11.50;99.90
37412;DHT22;23278;52.110;6.050;2023-02-18T16:07:20;11.50;99.90
37412;DHT22;23278;52.110;6.050;2023-02-18T16:09:47;11.50;99.90
37412;DHT22;23278;52.110;6.050;2023-02-18T16:12:33;11.40;99.90
37412;DHT22;23278;52.110;6.050;2023-02-18T16:15:01;11.40;99.90
37412;DHT22;23278;52.110;6.050;2023-02-18T16:17:28;11.30;99.90
37412;DHT22;23278;52.110;6.050;2023-02-18T16:19:59;11.30;99.90
37412;DHT22;23278;52.110;6.050;2023-02-18T16:22:35;11.40;99.90
37412;DHT22;23278;52.110;6.050;2023-02-18T16:25:23;11.30;99.90
37412;DHT22;23278;52.110;6.050;2023-02-18T16:30:23;11.20;99.90
37412;DHT22;23278;52.110;6.050;2023-02-18T16:32:49;11.20;99.90
37412;DHT22;23278;52.110;6.050;2023-02-18T16:35:17;11.20;99.90
37412;DHT22;23278;52.110;6.050;2023-02-18T16:37:44;11.20;99.90
37412;DHT22;23278;52.110;6.050;2023-02-18T16:42:41;11.10;99.90
37412;DHT22;23278;52.110;6.050;2023-02-18T16:45:11;11.10;99.90
37412;DHT22;23278;52.110;6.050;2023-02-18T16:47:38;11.10;99.90
37412;DHT22;23278;52.110;6.050;2023-02-18T16:50:04;11.00;99.90
37412;DHT22;23278;52.110;6.050;2023-02-18T16:52:30;11.00;99.90
37412;DHT22;23278;52.110;6.050;2023-02-18T16:54:56;11.00;99.90
37412;DHT22;23278;52.110;6.050;2023-02-18T16:57:22;11.00;99.90
37412;DHT22;23278;52.110;6.050;2023-02-18T16:59:48;11.00;99.90
37412;DHT22;23278;52.110;6.050;2023-02-18T17:02:20;11.00;99.90
37412;DHT22;23278;52.110;6.050;2023-02-18T17:04:46;11.00;99.90
37412;DHT22;23278;52.110;6.050;2023-02-18T17:07:12;11.00;99.90
37412;DHT22;23278;52.110;6.050;2023-02-18T17:09:38;11.00;99.90
37412;DHT22;23278;52.110;6.050;2023-02-18T17:12:04;11.00;99.90
37412;DHT22;23278;52.110;6.050;2023-02-18T17:14:30;11.00;99.90
37412;DHT22;23278;52.110;6.050;2023-02-18T17:16:57;11.00;99.90
37412;DHT22;23278;52.110;6.050;2023-02-18T17:19:23;11.00;99.90
37412;DHT22;23278;52.110;6.050;2023-02-18T17:21:48;11.00;99.90
37412;DHT22;23278;52.110;6.050;2023-02-18T17:24:16;11.00;99.90
37412;DHT22;23278;52.110;6.050;2023-02-18T17:26:43;11.00;99.90
37412;DHT22;23278;52.110;6.050;2023-02-18T17:29:09;11.00;99.90
37412;DHT22;23278;52.110;6.050;2023-02-18T17:31:38;11.00;99.90
37412;DHT22;23278;52.110;6.050;2023-02-18T17:34:07;11.00;99.90
37412;DHT22;23278;52.110;6.050;2023-02-18T17:36:34;11.00;99.90
37412;DHT22;23278;52.110;6.050;2023-02-18T17:39:00;11.00;99.90
37412;DHT22;23278;52.110;6.050;2023-02-18T17:41:26;11.00;99.90
37412;DHT22;23278;52.110;6.050;2023-02-18T17:43:52;10.90;99.90
37412;DHT22;23278;52.110;6.050;2023-02-18T17:46:18;10.90;99.90
37412;DHT22;23278;52.110;6.050;2023-02-18T17:48:45;10.90;99.90
37412;DHT22;23278;52.110;6.050;2023-02-18T17:51:23;10.90;99.90
37412;DHT22;23278;52.110;6.050;2023-02-18T17:53:49;10.90;99.90
37412;DHT22;23278;52.110;6.050;2023-02-18T17:56:15;10.90;99.90
37412;DHT22;23278;52.110;6.050;2023-02-18T17:58:41;10.90;99.90